sensor_id;sensor_type;location;lat;lon;timestamp;P1;durP1;ratioP1;P2;durP2;ratioP2
11522;SDS011;70090;43.208;27.904;2023-05-27T00:01:17;13.53;;;12.13;;
11522;SDS011;70090;43.208;27.904;2023-05-27T00:03:46;16.87;;;12.80;;
11522;SDS011;70090;43.208;27.904;2023-05-27T00:06:13;15.50;;;12.50;;
11522;SDS011;70090;43.208;27.904;2023-05-27T00:08:40;17.70;;;13.77;;
11522;SDS011;70090;43.208;27.904;2023-05-27T00:11:06;14.17;;;12.40;;
11522;SDS011;70090;43.208;27.904;2023-05-27T00:13:33;15.67;;;13.97;;
11522;SDS011;70090;43.208;27.904;2023-05-27T00:16:00;18.47;;;14.57;;
11522;SDS011;70090;43.208;27.904;2023-05-27T00:18:27;18.43;;;14.53;;
11522;SDS011;70090;43.208;27.904;2023-05-27T00:20:55;18.00;;;14.30;;
11522;SDS011;70090;43.208;27.904;2023-05-27T00:23:22;18.60;;;15.60;;
11522;SDS011;70090;43.208;27.904;2023-05-27T00:25:49;15.93;;;14.13;;
11522;SDS011;70090;43.208;27.904;2023-05-27T00:28:15;19.97;;;15.80;;
11522;SDS011;70090;43.208;27.904;2023-05-27T00:30:43;18.23;;;16.33;;
11522;SDS011;70090;43.208;27.904;2023-05-27T00:33:10;19.83;;;15.70;;
11522;SDS011;70090;43.208;27.904;2023-05-27T00:35:37;18.97;;;16.00;;
11522;SDS011;70090;43.208;27.904;2023-05-27T00:38:05;19.77;;;15.60;;
11522;SDS011;70090;43.208;27.904;2023-05-27T00:40:34;19.37;;;17.27;;
11522;SDS011;70090;43.208;27.904;2023-05-27T00:43:02;20.97;;;14.70;;
11522;SDS011;70090;43.208;27.904;2023-05-27T00:45:29;13.40;;;12.00;;
11522;SDS011;70090;43.208;27.904;2023-05-27T00:47:56;15.20;;;13.37;;
11522;SDS011;70090;43.208;27.904;2023-05-27T00:50:24;11.27;;;9.00;;
11522;SDS011;70090;43.208;27.904;2023-05-27T00:52:52;12.17;;;10.33;;
11522;SDS011;70090;43.208;27.904;2023-05-27T00:55:21;16.63;;;13.37;;
11522;SDS011;70090;43.208;27.904;2023-05-27T00:57:49;14.07;;;12.57;;
11522;SDS011;70090;43.208;27.904;2023-05-27T01:00:19;16.53;;;13.80;;
11522;SDS011;70090;43.208;27.904;2023-05-27T01:02:46;13.83;;;12.43;;
11522;SDS011;70090;43.208;27.904;2023-05-27T01:05:14;18.40;;;15.23;;
11522;SDS011;70090;43.208;27.904;2023-05-27T01:07:45;20.33;;;15.33;;
11522;SDS011;70090;43.208;27.904;2023-05-27T01:10:23;10.40;;;9.40;;
11522;SDS011;70090;43.208;27.904;2023-05-27T01:13:12;13.93;;;11.23;;
11522;SDS011;70090;43.208;27.904;2023-05-27T01:15:43;11.17;;;9.80;;
11522;SDS011;70090;43.208;27.904;2023-05-27T01:18:12;12.00;;;10.17;;
11522;SDS011;70090;43.208;27.904;2023-05-27T01:20:44;11.57;;;10.13;;
11522;SDS011;70090;43.208;27.904;2023-05-27T01:23:16;12.03;;;10.73;;
11522;SDS011;70090;43.208;27.904;2023-05-27T01:25:43;12.57;;;11.27;;
11522;SDS011;70090;43.208;27.904;2023-05-27T01:28:10;13.50;;;10.93;;
11522;SDS011;70090;43.208;27.904;2023-05-27T01:30:37;12.33;;;10.67;;
11522;SDS011;70090;43.208;27.904;2023-05-27T01:33:04;11.20;;;9.60;;
11522;SDS011;70090;43.208;27.904;2023-05-27T01:35:36;12.03;;;9.73;;
11522;SDS011;70090;43.208;27.904;2023-05-27T01:38:08;10.10;;;9.10;;
11522;SDS011;70090;43.208;27.904;2023-05-27T01:40:40;11.83;;;9.20;;
11522;SDS011;70090;43.208;27.904;2023-05-27T01:43:08;12.67;;;9.20;;
11522;SDS011;70090;43.208;27.904;2023-05-27T01:45:35;9.30;;;8.27;;
11522;SDS011;70090;43.208;27.904;2023-05-27T01:48:03;8.80;;;7.93;;
11522;SDS011;70090;43.208;27.904;2023-05-27T01:50:30;9.20;;;8.10;;
11522;SDS011;70090;43.208;27.904;2023-05-27T01:52:58;9.43;;;7.97;;
11522;SDS011;70090;43.208;27.904;2023-05-27T01:55:25;9.77;;;7.77;;
11522;SDS011;70090;43.208;27.904;2023-05-27T01:57:54;8.73;;;7.60;;
11522;SDS011;70090;43.208;27.904;2023-05-27T02:00:20;10.17;;;7.87;;
11522;SDS011;70090;43.208;27.904;2023-05-27T02:02:48;9.43;;;8.50;;
11522;SDS011;70090;43.208;27.904;2023-05-27T02:05:14;9.37;;;7.83;;
11522;SDS011;70090;43.208;27.904;2023-05-27T02:07:41;10.07;;;8.00;;
11522;SDS011;70090;43.208;27.904;2023-05-27T02:10:08;11.30;;;8.23;;
11522;SDS011;70090;43.208;27.904;2023-05-27T02:12:36;9.27;;;8.47;;
11522;SDS011;70090;43.208;27.904;2023-05-27T02:15:04;11.03;;;8.57;;
11522;SDS011;70090;43.208;27.904;2023-05-27T02:17:32;8.83;;;8.03;;
11522;SDS011;70090;43.208;27.904;2023-05-27T02:19:59;10.13;;;8.37;;
11522;SDS011;70090;43.208;27.904;2023-05-27T02:22:26;9.50;;;8.10;;
11522;SDS011;70090;43.208;27.904;2023-05-27T02:24:53;9.70;;;8.70;;
11522;SDS011;70090;43.208;27.904;2023-05-27T02:27:20;8.90;;;8.07;;
11522;SDS011;70090;43.208;27.904;2023-05-27T02:29:47;10.57;;;8.60;;
11522;SDS011;70090;43.208;27.904;2023-05-27T02:32:15;9.60;;;8.60;;
11522;SDS011;70090;43.208;27.904;2023-05-27T02:34:42;9.20;;;8.00;;
11522;SDS011;70090;43.208;27.904;2023-05-27T02:37:08;9.23;;;8.00;;
11522;SDS011;70090;43.208;27.904;2023-05-27T02:39:35;9.67;;;8.67;;
11522;SDS011;70090;43.208;27.904;2023-05-27T02:42:02;10.10;;;8.13;;
11522;SDS011;70090;43.208;27.904;2023-05-27T02:44:29;9.40;;;8.40;;
11522;SDS011;70090;43.208;27.904;2023-05-27T02:46:56;11.97;;;8.07;;
11522;SDS011;70090;43.208;27.904;2023-05-27T02:49:24;8.90;;;7.67;;
11522;SDS011;70090;43.208;27.904;2023-05-27T02:51:51;9.17;;;8.27;;
11522;SDS011;70090;43.208;27.904;2023-05-27T02:54:18;8.80;;;7.97;;
11522;SDS011;70090;43.208;27.904;2023-05-27T02:56:45;8.20;;;7.40;;
11522;SDS011;70090;43.208;27.904;2023-05-27T02:59:11;8.67;;;7.83;;
11522;SDS011;70090;43.208;27.904;2023-05-27T03:01:38;10.07;;;8.77;;
11522;SDS011;70090;43.208;27.904;2023-05-27T03:04:06;11.27;;;8.40;;
11522;SDS011;70090;43.208;27.904;2023-05-27T03:06:34;11.47;;;8.73;;
11522;SDS011;70090;43.208;27.904;2023-05-27T03:09:01;11.00;;;8.87;;
11522;SDS011;70090;43.208;27.904;2023-05-27T03:11:28;9.03;;;8.07;;
11522;SDS011;70090;43.208;27.904;2023-05-27T03:13:55;15.20;;;13.67;;
11522;SDS011;70090;43.208;27.904;2023-05-27T03:16:22;13.63;;;8.00;;
11522;SDS011;70090;43.208;27.904;2023-05-27T03:18:49;8.53;;;7.27;;
11522;SDS011;70090;43.208;27.904;2023-05-27T03:21:16;8.93;;;8.00;;
11522;SDS011;70090;43.208;27.904;2023-05-27T03:23:45;10.53;;;7.50;;
11522;SDS011;70090;43.208;27.904;2023-05-27T03:26:11;8.37;;;7.57;;
11522;SDS011;70090;43.208;27.904;2023-05-27T03:28:38;8.27;;;7.47;;
11522;SDS011;70090;43.208;27.904;2023-05-27T03:31:05;8.30;;;7.50;;
11522;SDS011;70090;43.208;27.904;2023-05-27T03:33:34;8.37;;;7.57;;
11522;SDS011;70090;43.208;27.904;2023-05-27T03:36:00;9.43;;;7.87;;
11522;SDS011;70090;43.208;27.904;2023-05-27T03:38:27;9.50;;;8.00;;
11522;SDS011;70090;43.208;27.904;2023-05-27T03:40:55;9.30;;;7.77;;
11522;SDS011;70090;43.208;27.904;2023-05-27T03:43:22;8.73;;;7.83;;
11522;SDS011;70090;43.208;27.904;2023-05-27T03:45:49;9.67;;;7.57;;
11522;SDS011;70090;43.208;27.904;2023-05-27T03:48:16;8.50;;;7.60;;
11522;SDS011;70090;43.208;27.904;2023-05-27T03:50:43;8.33;;;7.47;;
11522;SDS011;70090;43.208;27.904;2023-05-27T03:53:09;8.40;;;6.83;;
11522;SDS011;70090;43.208;27.904;2023-05-27T03:55:36;9.00;;;6.97;;
11522;SDS011;70090;43.208;27.904;2023-05-27T03:58:04;8.13;;;7.10;;
11522;SDS011;70090;43.208;27.904;2023-05-27T04:00:31;7.73;;;6.70;;
11522;SDS011;70090;43.208;27.904;2023-05-27T04:02:58;9.43;;;7.37;;
11522;SDS011;70090;43.208;27.904;2023-05-27T04:05:25;9.07;;;7.00;;
11522;SDS011;70090;43.208;27.904;2023-05-27T04:07:52;11.33;;;6.53;;
11522;SDS011;70090;43.208;27.904;2023-05-27T04:10:18;7.80;;;6.20;;
11522;SDS011;70090;43.208;27.904;2023-05-27T04:12:45;8.30;;;6.70;;
11522;SDS011;70090;43.208;27.904;2023-05-27T04:15:13;9.07;;;6.67;;
11522;SDS011;70090;43.208;27.904;2023-05-27T04:17:40;8.20;;;7.00;;
11522;SDS011;70090;43.208;27.904;2023-05-27T04:20:07;7.77;;;7.00;;
11522;SDS011;70090;43.208;27.904;2023-05-27T04:22:39;8.40;;;6.83;;
11522;SDS011;70090;43.208;27.904;2023-05-27T04:25:06;9.13;;;7.03;;
11522;SDS011;70090;43.208;27.904;2023-05-27T04:27:33;8.73;;;6.83;;
11522;SDS011;70090;43.208;27.904;2023-05-27T04:30:01;9.10;;;7.53;;
11522;SDS011;70090;43.208;27.904;2023-05-27T04:32:30;8.67;;;7.27;;
11522;SDS011;70090;43.208;27.904;2023-05-27T04:34:58;7.90;;;7.13;;
11522;SDS011;70090;43.208;27.904;2023-05-27T04:37:25;7.47;;;6.57;;
11522;SDS011;70090;43.208;27.904;2023-05-27T04:39:53;8.20;;;6.70;;
11522;SDS011;70090;43.208;27.904;2023-05-27T04:42:22;9.07;;;6.77;;
11522;SDS011;70090;43.208;27.904;2023-05-27T04:44:49;7.50;;;6.60;;
11522;SDS011;70090;43.208;27.904;2023-05-27T04:47:16;8.93;;;6.60;;
11522;SDS011;70090;43.208;27.904;2023-05-27T04:49:45;9.37;;;6.77;;
11522;SDS011;70090;43.208;27.904;2023-05-27T04:52:12;9.60;;;6.20;;
11522;SDS011;70090;43.208;27.904;2023-05-27T04:54:38;9.80;;;6.70;;
11522;SDS011;70090;43.208;27.904;2023-05-27T04:57:05;8.13;;;6.70;;
11522;SDS011;70090;43.208;27.904;2023-05-27T04:59:32;8.93;;;6.80;;
11522;SDS011;70090;43.208;27.904;2023-05-27T05:02:11;7.60;;;6.17;;
11522;SDS011;70090;43.208;27.904;2023-05-27T05:04:48;8.43;;;6.50;;
11522;SDS011;70090;43.208;27.904;2023-05-27T05:07:16;9.67;;;6.47;;
11522;SDS011;70090;43.208;27.904;2023-05-27T05:09:44;7.67;;;6.87;;
11522;SDS011;70090;43.208;27.904;2023-05-27T05:12:11;8.70;;;6.13;;
11522;SDS011;70090;43.208;27.904;2023-05-27T05:14:38;7.10;;;6.33;;
11522;SDS011;70090;43.208;27.904;2023-05-27T05:17:04;10.17;;;6.37;;
11522;SDS011;70090;43.208;27.904;2023-05-27T05:19:31;10.27;;;7.00;;
11522;SDS011;70090;43.208;27.904;2023-05-27T05:21:59;9.40;;;6.37;;
11522;SDS011;70090;43.208;27.904;2023-05-27T05:24:26;10.53;;;7.07;;
11522;SDS011;70090;43.208;27.904;2023-05-27T05:26:53;8.03;;;6.63;;
11522;SDS011;70090;43.208;27.904;2023-05-27T05:29:20;8.03;;;7.07;;
11522;SDS011;70090;43.208;27.904;2023-05-27T05:31:47;10.47;;;6.50;;
11522;SDS011;70090;43.208;27.904;2023-05-27T05:34:14;8.13;;;6.73;;
11522;SDS011;70090;43.208;27.904;2023-05-27T05:36:41;7.70;;;6.97;;
11522;SDS011;70090;43.208;27.904;2023-05-27T05:39:10;9.70;;;7.07;;
11522;SDS011;70090;43.208;27.904;2023-05-27T05:41:36;8.93;;;7.97;;
11522;SDS011;70090;43.208;27.904;2023-05-27T05:44:03;8.00;;;7.20;;
11522;SDS011;70090;43.208;27.904;2023-05-27T05:46:30;9.43;;;7.67;;
11522;SDS011;70090;43.208;27.904;2023-05-27T05:48:57;8.40;;;7.60;;
11522;SDS011;70090;43.208;27.904;2023-05-27T05:51:24;9.87;;;7.13;;
11522;SDS011;70090;43.208;27.904;2023-05-27T05:53:51;8.63;;;7.53;;
11522;SDS011;70090;43.208;27.904;2023-05-27T05:56:19;10.20;;;7.50;;
11522;SDS011;70090;43.208;27.904;2023-05-27T05:58:46;9.27;;;7.47;;
11522;SDS011;70090;43.208;27.904;2023-05-27T06:01:13;8.47;;;7.57;;
11522;SDS011;70090;43.208;27.904;2023-05-27T06:03:40;9.80;;;8.40;;
11522;SDS011;70090;43.208;27.904;2023-05-27T06:06:07;12.33;;;8.27;;
11522;SDS011;70090;43.208;27.904;2023-05-27T06:08:34;8.70;;;7.87;;
11522;SDS011;70090;43.208;27.904;2023-05-27T06:11:01;9.03;;;8.13;;
11522;SDS011;70090;43.208;27.904;2023-05-27T06:13:29;8.70;;;7.80;;
11522;SDS011;70090;43.208;27.904;2023-05-27T06:15:56;10.67;;;8.33;;
11522;SDS011;70090;43.208;27.904;2023-05-27T06:18:23;8.33;;;7.47;;
11522;SDS011;70090;43.208;27.904;2023-05-27T06:20:49;11.77;;;7.87;;
11522;SDS011;70090;43.208;27.904;2023-05-27T06:23:16;8.80;;;8.00;;
11522;SDS011;70090;43.208;27.904;2023-05-27T06:25:43;10.97;;;8.13;;
11522;SDS011;70090;43.208;27.904;2023-05-27T06:28:10;9.83;;;8.37;;
11522;SDS011;70090;43.208;27.904;2023-05-27T06:30:38;9.23;;;8.33;;
11522;SDS011;70090;43.208;27.904;2023-05-27T06:33:05;9.30;;;8.40;;
11522;SDS011;70090;43.208;27.904;2023-05-27T06:35:32;10.50;;;9.40;;
11522;SDS011;70090;43.208;27.904;2023-05-27T06:37:58;11.00;;;9.23;;
11522;SDS011;70090;43.208;27.904;2023-05-27T06:40:25;10.97;;;9.80;;
11522;SDS011;70090;43.208;27.904;2023-05-27T06:42:52;12.77;;;10.00;;
11522;SDS011;70090;43.208;27.904;2023-05-27T06:45:20;10.07;;;9.00;;
11522;SDS011;70090;43.208;27.904;2023-05-27T06:47:48;9.63;;;8.50;;
11522;SDS011;70090;43.208;27.904;2023-05-27T06:50:15;12.93;;;9.70;;
11522;SDS011;70090;43.208;27.904;2023-05-27T06:52:41;9.97;;;8.97;;
11522;SDS011;70090;43.208;27.904;2023-05-27T06:55:08;11.43;;;9.43;;
11522;SDS011;70090;43.208;27.904;2023-05-27T06:57:35;10.17;;;8.77;;
11522;SDS011;70090;43.208;27.904;2023-05-27T07:00:02;10.53;;;9.03;;
11522;SDS011;70090;43.208;27.904;2023-05-27T07:02:31;13.90;;;9.27;;
11522;SDS011;70090;43.208;27.904;2023-05-27T07:04:59;11.33;;;9.30;;
11522;SDS011;70090;43.208;27.904;2023-05-27T07:07:26;10.63;;;9.53;;
11522;SDS011;70090;43.208;27.904;2023-05-27T07:09:52;9.93;;;9.03;;
11522;SDS011;70090;43.208;27.904;2023-05-27T07:12:20;10.83;;;9.20;;
11522;SDS011;70090;43.208;27.904;2023-05-27T07:14:47;10.17;;;9.17;;
11522;SDS011;70090;43.208;27.904;2023-05-27T07:17:13;13.50;;;9.27;;
11522;SDS011;70090;43.208;27.904;2023-05-27T07:19:40;9.97;;;9.07;;
11522;SDS011;70090;43.208;27.904;2023-05-27T07:22:08;11.00;;;9.70;;
11522;SDS011;70090;43.208;27.904;2023-05-27T07:24:35;15.10;;;11.60;;
11522;SDS011;70090;43.208;27.904;2023-05-27T07:27:02;10.67;;;9.00;;
11522;SDS011;70090;43.208;27.904;2023-05-27T07:29:29;10.70;;;9.03;;
11522;SDS011;70090;43.208;27.904;2023-05-27T07:31:56;11.90;;;10.60;;
11522;SDS011;70090;43.208;27.904;2023-05-27T07:34:23;9.70;;;8.73;;
11522;SDS011;70090;43.208;27.904;2023-05-27T07:36:50;10.17;;;9.10;;
11522;SDS011;70090;43.208;27.904;2023-05-27T07:39:18;10.20;;;9.17;;
11522;SDS011;70090;43.208;27.904;2023-05-27T07:41:45;10.10;;;9.07;;
11522;SDS011;70090;43.208;27.904;2023-05-27T07:44:11;9.67;;;8.67;;
11522;SDS011;70090;43.208;27.904;2023-05-27T07:46:38;10.17;;;9.07;;
11522;SDS011;70090;43.208;27.904;2023-05-27T07:49:05;14.53;;;9.80;;
11522;SDS011;70090;43.208;27.904;2023-05-27T07:51:32;12.87;;;9.50;;
11522;SDS011;70090;43.208;27.904;2023-05-27T07:53:59;11.70;;;9.40;;
11522;SDS011;70090;43.208;27.904;2023-05-27T07:56:27;11.43;;;10.00;;
11522;SDS011;70090;43.208;27.904;2023-05-27T07:58:54;10.87;;;8.70;;
11522;SDS011;70090;43.208;27.904;2023-05-27T08:01:20;10.80;;;8.53;;
11522;SDS011;70090;43.208;27.904;2023-05-27T08:03:47;12.80;;;8.93;;
11522;SDS011;70090;43.208;27.904;2023-05-27T08:06:15;9.87;;;8.33;;
11522;SDS011;70090;43.208;27.904;2023-05-27T08:08:42;11.47;;;8.93;;
11522;SDS011;70090;43.208;27.904;2023-05-27T08:11:09;9.30;;;8.30;;
11522;SDS011;70090;43.208;27.904;2023-05-27T08:13:38;11.53;;;8.80;;
11522;SDS011;70090;43.208;27.904;2023-05-27T08:16:04;11.60;;;9.10;;
11522;SDS011;70090;43.208;27.904;2023-05-27T08:18:32;10.03;;;9.00;;
11522;SDS011;70090;43.208;27.904;2023-05-27T08:20:58;9.13;;;8.30;;
11522;SDS011;70090;43.208;27.904;2023-05-27T08:23:25;9.20;;;8.30;;
11522;SDS011;70090;43.208;27.904;2023-05-27T08:25:52;10.73;;;8.77;;
11522;SDS011;70090;43.208;27.904;2023-05-27T08:28:19;11.33;;;9.37;;
11522;SDS011;70090;43.208;27.904;2023-05-27T08:30:49;9.00;;;7.90;;
11522;SDS011;70090;43.208;27.904;2023-05-27T08:33:16;10.00;;;8.07;;
11522;SDS011;70090;43.208;27.904;2023-05-27T08:35:43;9.10;;;8.20;;
11522;SDS011;70090;43.208;27.904;2023-05-27T08:38:09;12.33;;;9.87;;
11522;SDS011;70090;43.208;27.904;2023-05-27T08:40:36;13.17;;;9.77;;
11522;SDS011;70090;43.208;27.904;2023-05-27T08:43:05;10.30;;;8.30;;
11522;SDS011;70090;43.208;27.904;2023-05-27T08:45:32;10.17;;;8.57;;
11522;SDS011;70090;43.208;27.904;2023-05-27T08:48:01;9.17;;;8.33;;
11522;SDS011;70090;43.208;27.904;2023-05-27T08:50:28;10.90;;;7.87;;
11522;SDS011;70090;43.208;27.904;2023-05-27T08:52:55;12.67;;;8.50;;
11522;SDS011;70090;43.208;27.904;2023-05-27T08:55:22;9.63;;;8.63;;
11522;SDS011;70090;43.208;27.904;2023-05-27T08:57:50;10.30;;;8.43;;
11522;SDS011;70090;43.208;27.904;2023-05-27T09:00:17;12.73;;;9.27;;
11522;SDS011;70090;43.208;27.904;2023-05-27T09:02:44;11.03;;;8.80;;
11522;SDS011;70090;43.208;27.904;2023-05-27T09:05:13;11.50;;;9.53;;
11522;SDS011;70090;43.208;27.904;2023-05-27T09:07:41;10.40;;;9.27;;
11522;SDS011;70090;43.208;27.904;2023-05-27T09:10:08;12.73;;;9.23;;
11522;SDS011;70090;43.208;27.904;2023-05-27T09:12:35;14.17;;;9.13;;
11522;SDS011;70090;43.208;27.904;2023-05-27T09:15:02;10.83;;;9.67;;
11522;SDS011;70090;43.208;27.904;2023-05-27T09:17:30;10.93;;;8.80;;
11522;SDS011;70090;43.208;27.904;2023-05-27T09:19:57;9.83;;;8.30;;
11522;SDS011;70090;43.208;27.904;2023-05-27T09:22:26;14.20;;;10.17;;
11522;SDS011;70090;43.208;27.904;2023-05-27T09:24:54;12.43;;;8.20;;
11522;SDS011;70090;43.208;27.904;2023-05-27T09:27:25;12.13;;;8.60;;
11522;SDS011;70090;43.208;27.904;2023-05-27T09:29:52;15.03;;;8.57;;
11522;SDS011;70090;43.208;27.904;2023-05-27T09:32:23;14.37;;;9.77;;
11522;SDS011;70090;43.208;27.904;2023-05-27T09:34:52;14.70;;;9.33;;
11522;SDS011;70090;43.208;27.904;2023-05-27T09:37:18;17.27;;;10.50;;
11522;SDS011;70090;43.208;27.904;2023-05-27T09:39:47;16.33;;;10.27;;
11522;SDS011;70090;43.208;27.904;2023-05-27T09:42:17;14.73;;;10.37;;
11522;SDS011;70090;43.208;27.904;2023-05-27T09:44:45;17.40;;;10.40;;
11522;SDS011;70090;43.208;27.904;2023-05-27T09:47:14;13.30;;;9.70;;
11522;SDS011;70090;43.208;27.904;2023-05-27T09:49:42;17.23;;;10.30;;
11522;SDS011;70090;43.208;27.904;2023-05-27T09:52:11;12.37;;;10.07;;
11522;SDS011;70090;43.208;27.904;2023-05-27T09:54:43;13.10;;;9.77;;
11522;SDS011;70090;43.208;27.904;2023-05-27T09:57:11;12.30;;;9.70;;
11522;SDS011;70090;43.208;27.904;2023-05-27T09:59:38;16.07;;;11.10;;
11522;SDS011;70090;43.208;27.904;2023-05-27T10:02:06;18.70;;;14.50;;
11522;SDS011;70090;43.208;27.904;2023-05-27T10:04:33;21.00;;;13.57;;
11522;SDS011;70090;43.208;27.904;2023-05-27T10:07:02;16.90;;;12.57;;
11522;SDS011;70090;43.208;27.904;2023-05-27T10:09:28;20.77;;;14.97;;
11522;SDS011;70090;43.208;27.904;2023-05-27T10:11:56;15.53;;;10.97;;
11522;SDS011;70090;43.208;27.904;2023-05-27T10:14:25;11.03;;;9.93;;
11522;SDS011;70090;43.208;27.904;2023-05-27T10:16:52;20.03;;;15.33;;
11522;SDS011;70090;43.208;27.904;2023-05-27T10:19:21;17.13;;;13.93;;
11522;SDS011;70090;43.208;27.904;2023-05-27T10:21:48;15.70;;;12.00;;
11522;SDS011;70090;43.208;27.904;2023-05-27T10:24:15;21.70;;;14.90;;
11522;SDS011;70090;43.208;27.904;2023-05-27T10:26:42;21.00;;;17.30;;
11522;SDS011;70090;43.208;27.904;2023-05-27T10:29:11;18.60;;;16.70;;
11522;SDS011;70090;43.208;27.904;2023-05-27T10:31:44;18.87;;;15.70;;
11522;SDS011;70090;43.208;27.904;2023-05-27T10:34:12;13.80;;;12.27;;
11522;SDS011;70090;43.208;27.904;2023-05-27T10:36:39;20.40;;;16.70;;
11522;SDS011;70090;43.208;27.904;2023-05-27T10:39:11;18.60;;;14.77;;
11522;SDS011;70090;43.208;27.904;2023-05-27T10:41:40;19.83;;;14.67;;
11522;SDS011;70090;43.208;27.904;2023-05-27T10:44:07;17.83;;;15.03;;
11522;SDS011;70090;43.208;27.904;2023-05-27T10:46:38;19.93;;;16.00;;
11522;SDS011;70090;43.208;27.904;2023-05-27T10:49:11;20.43;;;15.97;;
11522;SDS011;70090;43.208;27.904;2023-05-27T10:51:41;18.73;;;16.23;;
11522;SDS011;70090;43.208;27.904;2023-05-27T10:54:09;18.40;;;16.50;;
11522;SDS011;70090;43.208;27.904;2023-05-27T10:56:35;21.50;;;18.47;;
11522;SDS011;70090;43.208;27.904;2023-05-27T10:59:04;22.53;;;19.90;;
11522;SDS011;70090;43.208;27.904;2023-05-27T11:01:36;18.10;;;16.20;;
11522;SDS011;70090;43.208;27.904;2023-05-27T11:04:05;19.17;;;15.40;;
11522;SDS011;70090;43.208;27.904;2023-05-27T11:06:34;17.77;;;15.97;;
11522;SDS011;70090;43.208;27.904;2023-05-27T11:09:01;20.27;;;18.20;;
11522;SDS011;70090;43.208;27.904;2023-05-27T11:11:28;19.07;;;17.07;;
11522;SDS011;70090;43.208;27.904;2023-05-27T11:13:54;20.87;;;17.67;;
11522;SDS011;70090;43.208;27.904;2023-05-27T11:16:21;19.17;;;17.27;;
11522;SDS011;70090;43.208;27.904;2023-05-27T11:18:48;21.90;;;19.70;;
11522;SDS011;70090;43.208;27.904;2023-05-27T11:21:16;22.03;;;19.33;;
11522;SDS011;70090;43.208;27.904;2023-05-27T11:23:44;24.57;;;17.53;;
11522;SDS011;70090;43.208;27.904;2023-05-27T11:26:13;20.83;;;17.20;;
11522;SDS011;70090;43.208;27.904;2023-05-27T11:28:50;18.80;;;16.37;;
11522;SDS011;70090;43.208;27.904;2023-05-27T11:31:18;19.67;;;16.43;;
11522;SDS011;70090;43.208;27.904;2023-05-27T11:33:46;19.20;;;15.40;;
11522;SDS011;70090;43.208;27.904;2023-05-27T11:36:16;20.80;;;15.87;;
11522;SDS011;70090;43.208;27.904;2023-05-27T11:38:51;17.93;;;15.43;;
11522;SDS011;70090;43.208;27.904;2023-05-27T11:41:19;17.33;;;13.87;;
11522;SDS011;70090;43.208;27.904;2023-05-27T11:43:47;15.27;;;12.27;;
11522;SDS011;70090;43.208;27.904;2023-05-27T11:46:15;14.80;;;12.07;;
11522;SDS011;70090;43.208;27.904;2023-05-27T11:48:42;19.70;;;17.70;;
11522;SDS011;70090;43.208;27.904;2023-05-27T11:51:09;14.47;;;12.47;;
11522;SDS011;70090;43.208;27.904;2023-05-27T11:53:38;15.37;;;13.03;;
11522;SDS011;70090;43.208;27.904;2023-05-27T11:56:06;16.57;;;13.23;;
11522;SDS011;70090;43.208;27.904;2023-05-27T11:58:33;15.07;;;12.63;;
11522;SDS011;70090;43.208;27.904;2023-05-27T12:01:01;14.07;;;12.77;;
11522;SDS011;70090;43.208;27.904;2023-05-27T12:03:28;15.00;;;13.60;;
11522;SDS011;70090;43.208;27.904;2023-05-27T12:05:56;14.87;;;13.37;;
11522;SDS011;70090;43.208;27.904;2023-05-27T12:08:23;14.23;;;12.67;;
11522;SDS011;70090;43.208;27.904;2023-05-27T12:10:50;15.37;;;13.83;;
11522;SDS011;70090;43.208;27.904;2023-05-27T12:13:20;15.43;;;13.83;;
11522;SDS011;70090;43.208;27.904;2023-05-27T12:15:48;15.23;;;13.70;;
11522;SDS011;70090;43.208;27.904;2023-05-27T12:18:15;16.60;;;14.90;;
11522;SDS011;70090;43.208;27.904;2023-05-27T12:20:43;15.80;;;13.33;;
11522;SDS011;70090;43.208;27.904;2023-05-27T12:23:10;15.27;;;13.67;;
11522;SDS011;70090;43.208;27.904;2023-05-27T12:25:37;14.60;;;13.13;;
11522;SDS011;70090;43.208;27.904;2023-05-27T12:28:05;14.33;;;12.73;;
11522;SDS011;70090;43.208;27.904;2023-05-27T12:30:35;16.33;;;11.57;;
11522;SDS011;70090;43.208;27.904;2023-05-27T12:33:02;17.83;;;12.63;;
11522;SDS011;70090;43.208;27.904;2023-05-27T12:35:29;14.03;;;12.60;;
11522;SDS011;70090;43.208;27.904;2023-05-27T12:37:56;13.87;;;12.40;;
11522;SDS011;70090;43.208;27.904;2023-05-27T12:40:23;15.10;;;13.60;;
11522;SDS011;70090;43.208;27.904;2023-05-27T12:42:50;13.83;;;11.90;;
11522;SDS011;70090;43.208;27.904;2023-05-27T12:45:17;12.67;;;11.33;;
11522;SDS011;70090;43.208;27.904;2023-05-27T12:47:48;13.50;;;12.10;;
11522;SDS011;70090;43.208;27.904;2023-05-27T12:50:15;13.50;;;12.10;;
11522;SDS011;70090;43.208;27.904;2023-05-27T12:52:42;14.13;;;11.60;;
11522;SDS011;70090;43.208;27.904;2023-05-27T12:55:11;12.97;;;11.87;;
11522;SDS011;70090;43.208;27.904;2023-05-27T12:57:39;13.93;;;11.90;;
11522;SDS011;70090;43.208;27.904;2023-05-27T13:00:06;13.60;;;12.20;;
11522;SDS011;70090;43.208;27.904;2023-05-27T13:02:34;13.87;;;12.47;;
11522;SDS011;70090;43.208;27.904;2023-05-27T13:05:04;13.50;;;11.90;;
11522;SDS011;70090;43.208;27.904;2023-05-27T13:07:32;12.83;;;11.57;;
11522;SDS011;70090;43.208;27.904;2023-05-27T13:10:00;13.03;;;11.80;;
11522;SDS011;70090;43.208;27.904;2023-05-27T13:12:27;13.37;;;11.90;;
11522;SDS011;70090;43.208;27.904;2023-05-27T13:14:54;13.40;;;11.70;;
11522;SDS011;70090;43.208;27.904;2023-05-27T13:17:22;13.50;;;11.83;;
11522;SDS011;70090;43.208;27.904;2023-05-27T13:19:48;12.43;;;11.33;;
11522;SDS011;70090;43.208;27.904;2023-05-27T13:22:17;10.17;;;9.20;;
11522;SDS011;70090;43.208;27.904;2023-05-27T13:24:43;12.40;;;11.20;;
11522;SDS011;70090;43.208;27.904;2023-05-27T13:27:10;13.47;;;10.90;;
11522;SDS011;70090;43.208;27.904;2023-05-27T13:29:38;13.33;;;11.60;;
11522;SDS011;70090;43.208;27.904;2023-05-27T13:32:06;12.73;;;11.43;;
11522;SDS011;70090;43.208;27.904;2023-05-27T13:34:33;13.77;;;12.43;;
11522;SDS011;70090;43.208;27.904;2023-05-27T13:36:59;15.97;;;11.40;;
11522;SDS011;70090;43.208;27.904;2023-05-27T13:39:29;13.57;;;11.20;;
11522;SDS011;70090;43.208;27.904;2023-05-27T13:41:56;12.47;;;10.90;;
11522;SDS011;70090;43.208;27.904;2023-05-27T13:44:23;12.83;;;11.10;;
11522;SDS011;70090;43.208;27.904;2023-05-27T13:46:50;14.87;;;13.37;;
11522;SDS011;70090;43.208;27.904;2023-05-27T13:49:18;12.67;;;11.03;;
11522;SDS011;70090;43.208;27.904;2023-05-27T13:51:45;12.50;;;11.03;;
11522;SDS011;70090;43.208;27.904;2023-05-27T13:54:12;13.13;;;11.03;;
11522;SDS011;70090;43.208;27.904;2023-05-27T13:56:40;14.73;;;12.50;;
11522;SDS011;70090;43.208;27.904;2023-05-27T13:59:08;13.97;;;11.53;;
11522;SDS011;70090;43.208;27.904;2023-05-27T14:01:35;16.30;;;11.87;;
11522;SDS011;70090;43.208;27.904;2023-05-27T14:04:02;12.47;;;10.83;;
11522;SDS011;70090;43.208;27.904;2023-05-27T14:06:29;15.43;;;12.33;;
11522;SDS011;70090;43.208;27.904;2023-05-27T14:08:56;14.73;;;11.50;;
11522;SDS011;70090;43.208;27.904;2023-05-27T14:11:23;18.33;;;13.17;;
11522;SDS011;70090;43.208;27.904;2023-05-27T14:13:52;14.10;;;12.47;;
11522;SDS011;70090;43.208;27.904;2023-05-27T14:16:20;16.90;;;11.80;;
11522;SDS011;70090;43.208;27.904;2023-05-27T14:18:47;13.97;;;12.47;;
11522;SDS011;70090;43.208;27.904;2023-05-27T14:21:14;15.83;;;12.17;;
11522;SDS011;70090;43.208;27.904;2023-05-27T14:23:42;15.23;;;11.87;;